PWSweather.com
Personal Weather Stations
Station Observations
270882
Flassian, LimouxFR 11300

FlassianLimouxFR 11300

Lat: 43.071798, Lon: 2.217292

Elevation: 165

Station Type: Oregon WMR 200

http://www.meteolimoux.fr

Latest ConditionsUpdated 10:32:10 AM GMT+01:01 Thursday, Dec 12, 2019
Currently Today's Max Today's Min Today's Average
Temperature 48.0°F8.9°C 48.9°F9.4°C 46.6°F8.1°C 47.7°F8.7°C
Dew Point 38.7°F3.7°C 40.3°F4.6°C 35.1°F1.7°C 37.7°F3.2°C
Winds 6.9 mph WSW11.1 kmh WSW 15.7 mph -25.3 kmh - - 8.4 mph 13.5 kmh
Wind Gusts 12.8 mph20.6 kmh 29.8 mph48.0 kmh - -
Humidity 70% 78% 59% 68%
Pressure 29.90 in1012.5 mb 30.01 in1016.3 mb 29.90 in1012.5 mb -
Hour Temp Dew Point Humidity Winds Wind Gusts Pressure Precip Precip Rate Daily Precip Total
10:32 AM 48.0°F8.9°C 38.7°F3.7°C 70% 6.9 mph WSW11.1 kmh WSW 12.8 mph20.6 kmh 29.90 in1012.5 mb - 0.00 in0.0 mm 0.00 in0.0 mm
10:27 AM 48.0°F8.9°C 38.7°F3.7°C 70% 4.3 mph W6.9 kmh W 13.0 mph20.9 kmh 29.93 in1013.5 mb - 0.00 in0.0 mm 0.00 in0.0 mm
10:22 AM 47.8°F8.8°C 38.8°F3.8°C 71% 5.6 mph WSW9.0 kmh WSW 11.9 mph19.2 kmh 29.93 in1013.5 mb - 0.00 in0.0 mm 0.00 in0.0 mm
10:17 AM 47.8°F8.8°C 39.2°F4.0°C 72% 3.4 mph W5.5 kmh W 10.5 mph16.9 kmh 29.93 in1013.5 mb - 0.00 in0.0 mm 0.00 in0.0 mm
10:12 AM 47.7°F8.7°C 39.0°F3.9°C 72% 1.8 mph W2.9 kmh W 8.9 mph14.3 kmh 29.93 in1013.5 mb - 0.00 in0.0 mm 0.00 in0.0 mm
10:07 AM 47.7°F8.7°C 39.0°F3.9°C 72% 1.8 mph W2.9 kmh W 8.5 mph13.7 kmh 29.93 in1013.5 mb - 0.00 in0.0 mm 0.00 in0.0 mm
10:02 AM 47.5°F8.6°C 39.2°F4.0°C 73% 5.4 mph WSW8.7 kmh WSW 10.7 mph17.2 kmh 29.93 in1013.5 mb - 0.00 in0.0 mm 0.00 in0.0 mm
09:57 AM 47.5°F8.6°C 39.2°F4.0°C 73% 3.8 mph WSW6.1 kmh WSW 10.5 mph16.9 kmh 29.93 in1013.5 mb - 0.00 in0.0 mm 0.00 in0.0 mm
09:52 AM 47.5°F8.6°C 39.6°F4.2°C 74% 4.7 mph WSW7.6 kmh WSW 10.3 mph16.6 kmh 29.93 in1013.5 mb - 0.00 in0.0 mm 0.00 in0.0 mm
09:47 AM 47.3°F8.5°C 39.4°F4.1°C 74% 2.5 mph W4.0 kmh W 11.6 mph18.7 kmh 29.93 in1013.5 mb - 0.00 in0.0 mm 0.00 in0.0 mm
09:42 AM 47.3°F8.5°C 39.7°F4.3°C 75% 4.5 mph WSW7.2 kmh WSW 12.1 mph19.5 kmh 29.93 in1013.5 mb - 0.00 in0.0 mm 0.00 in0.0 mm
09:37 AM 47.3°F8.5°C 39.7°F4.3°C 75% 3.4 mph WNW5.5 kmh WNW 9.2 mph14.8 kmh 29.93 in1013.5 mb - 0.00 in0.0 mm 0.00 in0.0 mm
09:32 AM 47.3°F8.5°C 39.7°F4.3°C 75% 5.4 mph WSW8.7 kmh WSW 12.1 mph19.5 kmh 29.93 in1013.5 mb - 0.00 in0.0 mm 0.00 in0.0 mm
09:27 AM 47.3°F8.5°C 39.4°F4.1°C 74% 3.6 mph SW5.8 kmh SW 11.6 mph18.7 kmh 29.93 in1013.5 mb - 0.00 in0.0 mm 0.00 in0.0 mm
09:22 AM 47.3°F8.5°C 39.7°F4.3°C 75% 4.7 mph WSW7.6 kmh WSW 11.9 mph19.2 kmh 29.93 in1013.5 mb - 0.00 in0.0 mm 0.00 in0.0 mm
09:17 AM 47.3°F8.5°C 39.4°F4.1°C 74% 6.0 mph WNW9.7 kmh WNW 13.6 mph21.9 kmh 29.93 in1013.5 mb - 0.00 in0.0 mm 0.00 in0.0 mm
09:12 AM 47.3°F8.5°C 39.4°F4.1°C 74% 5.8 mph WNW9.3 kmh WNW 15.4 mph24.8 kmh 29.93 in1013.5 mb - 0.00 in0.0 mm 0.00 in0.0 mm
09:07 AM 47.3°F8.5°C 39.4°F4.1°C 74% 3.1 mph NW5.0 kmh NW 9.2 mph14.8 kmh 29.93 in1013.5 mb - 0.00 in0.0 mm 0.00 in0.0 mm
09:02 AM 47.3°F8.5°C 39.4°F4.1°C 74% 5.4 mph W8.7 kmh W 10.7 mph17.2 kmh 29.93 in1013.5 mb - 0.00 in0.0 mm 0.00 in0.0 mm
08:57 AM 47.3°F8.5°C 39.4°F4.1°C 74% 4.3 mph WSW6.9 kmh WSW 8.7 mph14.0 kmh 29.93 in1013.5 mb - 0.00 in0.0 mm 0.00 in0.0 mm
08:52 AM 47.3°F8.5°C 39.4°F4.1°C 74% 6.0 mph W9.7 kmh W 16.1 mph25.9 kmh 29.93 in1013.5 mb - 0.00 in0.0 mm 0.00 in0.0 mm
08:47 AM 47.3°F8.5°C 39.4°F4.1°C 74% 6.7 mph WSW10.8 kmh WSW 12.3 mph19.8 kmh 29.93 in1013.5 mb - 0.00 in0.0 mm 0.00 in0.0 mm
08:42 AM 47.3°F8.5°C 39.4°F4.1°C 74% 2.2 mph W3.5 kmh W 7.8 mph12.6 kmh 29.93 in1013.5 mb - 0.00 in0.0 mm 0.00 in0.0 mm
08:37 AM 47.3°F8.5°C 39.4°F4.1°C 74% 6.7 mph W10.8 kmh W 13.0 mph20.9 kmh 29.93 in1013.5 mb - 0.00 in0.0 mm 0.00 in0.0 mm
08:32 AM 47.3°F8.5°C 39.4°F4.1°C 74% 6.5 mph WSW10.5 kmh WSW 11.4 mph18.3 kmh 29.93 in1013.5 mb - 0.00 in0.0 mm 0.00 in0.0 mm
08:27 AM 47.1°F8.4°C 39.6°F4.2°C 75% 7.2 mph WSW11.6 kmh WSW 15.4 mph24.8 kmh 29.93 in1013.5 mb - 0.00 in0.0 mm 0.00 in0.0 mm
08:22 AM 47.1°F8.4°C 39.6°F4.2°C 75% 4.5 mph WSW7.2 kmh WSW 10.7 mph17.2 kmh 29.93 in1013.5 mb - 0.00 in0.0 mm 0.00 in0.0 mm
08:17 AM 46.9°F8.3°C 39.7°F4.3°C 76% 3.8 mph W6.1 kmh W 8.1 mph13.0 kmh 29.93 in1013.5 mb - 0.00 in0.0 mm 0.00 in0.0 mm
08:12 AM 46.8°F8.2°C 39.9°F4.4°C 77% 2.0 mph SW3.2 kmh SW 2.0 mph3.2 kmh 29.93 in1013.5 mb - 0.00 in0.0 mm 0.00 in0.0 mm
08:07 AM 46.6°F8.1°C 40.1°F4.5°C 78% 0.2 mph SW0.3 kmh SW 5.1 mph8.2 kmh 29.93 in1013.5 mb - 0.00 in0.0 mm 0.00 in0.0 mm
08:02 AM 46.6°F8.1°C 39.7°F4.3°C 77% 1.8 mph W2.9 kmh W 6.5 mph10.5 kmh 29.93 in1013.5 mb - 0.00 in0.0 mm 0.00 in0.0 mm
07:57 AM 46.8°F8.2°C 40.3°F4.6°C 78% 5.1 mph WSW8.2 kmh WSW 12.3 mph19.8 kmh 29.96 in1014.6 mb - 0.00 in0.0 mm 0.00 in0.0 mm
07:52 AM 46.8°F8.2°C 40.3°F4.6°C 78% 5.8 mph W9.3 kmh W 13.6 mph21.9 kmh 29.96 in1014.6 mb - 0.00 in0.0 mm 0.00 in0.0 mm
07:47 AM 46.8°F8.2°C 40.3°F4.6°C 78% 6.5 mph WSW10.5 kmh WSW 12.3 mph19.8 kmh 29.96 in1014.6 mb - 0.00 in0.0 mm 0.00 in0.0 mm
07:42 AM 46.8°F8.2°C 40.3°F4.6°C 78% 8.1 mph W13.0 kmh W 18.3 mph29.5 kmh 29.96 in1014.6 mb - 0.00 in0.0 mm 0.00 in0.0 mm
07:37 AM 46.9°F8.3°C 40.1°F4.5°C 77% 7.8 mph W12.6 kmh W 18.1 mph29.1 kmh 29.96 in1014.6 mb - 0.00 in0.0 mm 0.00 in0.0 mm
07:32 AM 47.1°F8.4°C 39.9°F4.4°C 76% 8.1 mph W13.0 kmh W 14.8 mph23.8 kmh 29.96 in1014.6 mb - 0.00 in0.0 mm 0.00 in0.0 mm
07:27 AM 47.5°F8.6°C 39.6°F4.2°C 74% 9.2 mph W14.8 kmh W 15.7 mph25.3 kmh 29.93 in1013.5 mb - 0.00 in0.0 mm 0.00 in0.0 mm
07:22 AM 47.7°F8.7°C 39.4°F4.1°C 73% 10.7 mph W17.2 kmh W 20.6 mph33.2 kmh 29.93 in1013.5 mb - 0.00 in0.0 mm 0.00 in0.0 mm
07:17 AM 47.8°F8.8°C 38.8°F3.8°C 71% 9.6 mph WNW15.4 kmh WNW 16.1 mph25.9 kmh 29.93 in1013.5 mb - 0.00 in0.0 mm 0.00 in0.0 mm
07:12 AM 47.8°F8.8°C 38.5°F3.6°C 70% 8.1 mph WNW13.0 kmh WNW 13.2 mph21.2 kmh 29.93 in1013.5 mb - 0.00 in0.0 mm 0.00 in0.0 mm
07:07 AM 47.8°F8.8°C 37.8°F3.2°C 68% 6.7 mph WSW10.8 kmh WSW 12.5 mph20.1 kmh 29.93 in1013.5 mb - 0.00 in0.0 mm 0.00 in0.0 mm
07:02 AM 47.7°F8.7°C 37.6°F3.1°C 68% 4.9 mph W7.9 kmh W 12.1 mph19.5 kmh 29.93 in1013.5 mb - 0.00 in0.0 mm 0.00 in0.0 mm
06:57 AM 47.7°F8.7°C 37.6°F3.1°C 68% 8.5 mph WSW13.7 kmh WSW 15.4 mph24.8 kmh 29.96 in1014.6 mb - 0.00 in0.0 mm 0.00 in0.0 mm
06:52 AM 47.8°F8.8°C 37.4°F3.0°C 67% 6.7 mph WNW10.8 kmh WNW 12.3 mph19.8 kmh 29.96 in1014.6 mb - 0.00 in0.0 mm 0.00 in0.0 mm
06:47 AM 47.8°F8.8°C 37.8°F3.2°C 68% 6.9 mph WSW11.1 kmh WSW 13.2 mph21.2 kmh 29.96 in1014.6 mb - 0.00 in0.0 mm 0.00 in0.0 mm
06:42 AM 47.7°F8.7°C 37.6°F3.1°C 68% 6.7 mph WSW10.8 kmh WSW 13.4 mph21.6 kmh 29.96 in1014.6 mb - 0.00 in0.0 mm 0.00 in0.0 mm
06:37 AM 47.7°F8.7°C 37.6°F3.1°C 68% 7.4 mph WSW11.9 kmh WSW 15.0 mph24.1 kmh 29.96 in1014.6 mb - 0.00 in0.0 mm 0.00 in0.0 mm
06:32 AM 47.5°F8.6°C 37.4°F3.0°C 68% 8.3 mph W13.4 kmh W 17.2 mph27.7 kmh 29.96 in1014.6 mb - 0.00 in0.0 mm 0.00 in0.0 mm
06:27 AM 47.5°F8.6°C 37.4°F3.0°C 68% 5.8 mph SW9.3 kmh SW 11.4 mph18.3 kmh 29.96 in1014.6 mb - 0.00 in0.0 mm 0.00 in0.0 mm
06:22 AM 47.3°F8.5°C 37.6°F3.1°C 69% 7.8 mph WNW12.6 kmh WNW 15.4 mph24.8 kmh 29.96 in1014.6 mb - 0.00 in0.0 mm 0.00 in0.0 mm
06:17 AM 47.3°F8.5°C 37.6°F3.1°C 69% 8.3 mph WSW13.4 kmh WSW 20.4 mph32.8 kmh 29.96 in1014.6 mb - 0.00 in0.0 mm 0.00 in0.0 mm
06:12 AM 47.1°F8.4°C 37.9°F3.3°C 70% 8.1 mph WSW13.0 kmh WSW 16.1 mph25.9 kmh 29.93 in1013.5 mb - 0.00 in0.0 mm 0.00 in0.0 mm
06:07 AM 47.1°F8.4°C 37.9°F3.3°C 70% 8.1 mph W13.0 kmh W 16.3 mph26.2 kmh 29.93 in1013.5 mb - 0.00 in0.0 mm 0.00 in0.0 mm
06:02 AM 47.1°F8.4°C 37.9°F3.3°C 70% 8.5 mph W13.7 kmh W 8.5 mph13.7 kmh 29.93 in1013.5 mb - 0.00 in0.0 mm 0.00 in0.0 mm
05:57 AM 47.1°F8.4°C 37.6°F3.1°C 69% 8.9 mph WSW14.3 kmh WSW 16.6 mph26.7 kmh 29.96 in1014.6 mb - 0.00 in0.0 mm 0.00 in0.0 mm
05:52 AM 47.1°F8.4°C 37.6°F3.1°C 69% 8.5 mph W13.7 kmh W 14.3 mph23.0 kmh 29.96 in1014.6 mb - 0.00 in0.0 mm 0.00 in0.0 mm
05:47 AM 47.1°F8.4°C 37.0°F2.8°C 68% 9.4 mph NW15.1 kmh NW 17.4 mph28.0 kmh 29.96 in1014.6 mb - 0.00 in0.0 mm 0.00 in0.0 mm
05:42 AM 47.1°F8.4°C 37.0°F2.8°C 68% 8.5 mph W13.7 kmh W 16.8 mph27.0 kmh 29.96 in1014.6 mb - 0.00 in0.0 mm 0.00 in0.0 mm
05:37 AM 46.9°F8.3°C 37.4°F3.0°C 69% 9.6 mph WNW15.4 kmh WNW 21.3 mph34.3 kmh 29.96 in1014.6 mb - 0.00 in0.0 mm 0.00 in0.0 mm
05:32 AM 47.1°F8.4°C 37.0°F2.8°C 68% 8.1 mph WNW13.0 kmh WNW 15.4 mph24.8 kmh 29.96 in1014.6 mb - 0.00 in0.0 mm 0.00 in0.0 mm
05:27 AM 47.1°F8.4°C 37.0°F2.8°C 68% 8.3 mph WSW13.4 kmh WSW 18.8 mph30.3 kmh 29.96 in1014.6 mb - 0.00 in0.0 mm 0.00 in0.0 mm
05:22 AM 47.3°F8.5°C 36.9°F2.7°C 67% 8.1 mph WSW13.0 kmh WSW 16.6 mph26.7 kmh 29.96 in1014.6 mb - 0.00 in0.0 mm 0.00 in0.0 mm
05:17 AM 47.3°F8.5°C 36.9°F2.7°C 67% 6.3 mph WNW10.1 kmh WNW 14.1 mph22.7 kmh 29.96 in1014.6 mb - 0.00 in0.0 mm 0.00 in0.0 mm
05:12 AM 47.1°F8.4°C 36.7°F2.6°C 67% 7.4 mph WSW11.9 kmh WSW 14.3 mph23.0 kmh 29.96 in1014.6 mb - 0.00 in0.0 mm 0.00 in0.0 mm
05:07 AM 47.1°F8.4°C 36.7°F2.6°C 67% 7.4 mph WNW11.9 kmh WNW 17.0 mph27.4 kmh 29.96 in1014.6 mb - 0.00 in0.0 mm 0.00 in0.0 mm
05:02 AM 47.1°F8.4°C 36.7°F2.6°C 67% 9.4 mph WSW15.1 kmh WSW 18.1 mph29.1 kmh 29.96 in1014.6 mb - 0.00 in0.0 mm 0.00 in0.0 mm
04:57 AM 47.3°F8.5°C 36.9°F2.7°C 67% 10.1 mph WNW16.3 kmh WNW 18.8 mph30.3 kmh 29.96 in1014.6 mb - 0.00 in0.0 mm 0.00 in0.0 mm
04:52 AM 47.1°F8.4°C 37.0°F2.8°C 68% 10.5 mph WSW16.9 kmh WSW 18.6 mph29.9 kmh 29.96 in1014.6 mb - 0.00 in0.0 mm 0.00 in0.0 mm
04:47 AM 47.1°F8.4°C 37.0°F2.8°C 68% 10.1 mph SW16.3 kmh SW 17.9 mph28.8 kmh 29.96 in1014.6 mb - 0.00 in0.0 mm 0.00 in0.0 mm
04:42 AM 47.1°F8.4°C 37.0°F2.8°C 68% 10.3 mph W16.6 kmh W 22.8 mph36.7 kmh 29.96 in1014.6 mb - 0.00 in0.0 mm 0.00 in0.0 mm
04:37 AM 47.1°F8.4°C 37.0°F2.8°C 68% 8.7 mph WSW14.0 kmh WSW 17.7 mph28.5 kmh 29.96 in1014.6 mb - 0.00 in0.0 mm 0.00 in0.0 mm
04:32 AM 47.1°F8.4°C 37.6°F3.1°C 69% 8.7 mph W14.0 kmh W 19.2 mph30.9 kmh 29.96 in1014.6 mb - 0.00 in0.0 mm 0.00 in0.0 mm
04:27 AM 46.9°F8.3°C 37.4°F3.0°C 69% 9.8 mph W15.8 kmh W 21.0 mph33.8 kmh 29.96 in1014.6 mb - 0.00 in0.0 mm 0.00 in0.0 mm
04:22 AM 47.1°F8.4°C 37.6°F3.1°C 69% 8.5 mph W13.7 kmh W 16.1 mph25.9 kmh 29.96 in1014.6 mb - 0.00 in0.0 mm 0.00 in0.0 mm
04:17 AM 47.1°F8.4°C 37.0°F2.8°C 68% 8.3 mph WSW13.4 kmh WSW 17.0 mph27.4 kmh 29.96 in1014.6 mb - 0.00 in0.0 mm 0.00 in0.0 mm
04:12 AM 47.1°F8.4°C 37.0°F2.8°C 68% 10.1 mph WSW16.3 kmh WSW 19.5 mph31.4 kmh 29.96 in1014.6 mb - 0.00 in0.0 mm 0.00 in0.0 mm
04:07 AM 47.3°F8.5°C 37.6°F3.1°C 69% 9.8 mph W15.8 kmh W 19.7 mph31.7 kmh 29.96 in1014.6 mb - 0.00 in0.0 mm 0.00 in0.0 mm
04:02 AM 47.3°F8.5°C 37.6°F3.1°C 69% 8.9 mph WSW14.3 kmh WSW 20.1 mph32.3 kmh 29.96 in1014.6 mb - 0.00 in0.0 mm 0.00 in0.0 mm
03:57 AM 47.3°F8.5°C 37.6°F3.1°C 69% 8.7 mph WSW14.0 kmh WSW 17.0 mph27.4 kmh 29.99 in1015.6 mb - 0.00 in0.0 mm 0.00 in0.0 mm
03:52 AM 47.3°F8.5°C 37.6°F3.1°C 69% 10.1 mph W16.3 kmh W 17.4 mph28.0 kmh 29.99 in1015.6 mb - 0.00 in0.0 mm 0.00 in0.0 mm
03:47 AM 47.5°F8.6°C 37.4°F3.0°C 68% 11.9 mph WSW19.2 kmh WSW 24.4 mph39.3 kmh 29.99 in1015.6 mb - 0.00 in0.0 mm 0.00 in0.0 mm
03:42 AM 47.7°F8.7°C 37.2°F2.9°C 67% 8.7 mph WSW14.0 kmh WSW 16.3 mph26.2 kmh 29.99 in1015.6 mb - 0.00 in0.0 mm 0.00 in0.0 mm
03:37 AM 47.8°F8.8°C 37.4°F3.0°C 67% 10.5 mph W16.9 kmh W 20.4 mph32.8 kmh 29.99 in1015.6 mb - 0.00 in0.0 mm 0.00 in0.0 mm
03:32 AM 48.0°F8.9°C 37.2°F2.9°C 66% 9.8 mph WSW15.8 kmh WSW 20.6 mph33.2 kmh 29.99 in1015.6 mb - 0.00 in0.0 mm 0.00 in0.0 mm
03:27 AM 48.0°F8.9°C 36.9°F2.7°C 65% 11.0 mph WSW17.7 kmh WSW 23.5 mph37.8 kmh 29.99 in1015.6 mb - 0.00 in0.0 mm 0.00 in0.0 mm
03:22 AM 48.2°F9.0°C 36.7°F2.6°C 64% 12.3 mph W19.8 kmh W 20.6 mph33.2 kmh 29.99 in1015.6 mb - 0.00 in0.0 mm 0.00 in0.0 mm
03:17 AM 48.2°F9.0°C 36.7°F2.6°C 64% 11.2 mph WSW18.0 kmh WSW 22.4 mph36.0 kmh 29.99 in1015.6 mb - 0.00 in0.0 mm 0.00 in0.0 mm
03:12 AM 48.2°F9.0°C 36.7°F2.6°C 64% 9.6 mph W15.4 kmh W 19.0 mph30.6 kmh 29.99 in1015.6 mb - 0.00 in0.0 mm 0.00 in0.0 mm
03:07 AM 48.0°F8.9°C 36.9°F2.7°C 65% 7.8 mph WSW12.6 kmh WSW 15.9 mph25.6 kmh 29.99 in1015.6 mb - 0.00 in0.0 mm 0.00 in0.0 mm
03:02 AM 48.0°F8.9°C 37.2°F2.9°C 66% 9.8 mph W15.8 kmh W 21.0 mph33.8 kmh 29.99 in1015.6 mb - 0.00 in0.0 mm 0.00 in0.0 mm
02:57 AM 48.0°F8.9°C 37.2°F2.9°C 66% 9.2 mph WNW14.8 kmh WNW 18.3 mph29.5 kmh 29.99 in1015.6 mb - 0.00 in0.0 mm 0.00 in0.0 mm
02:52 AM 48.0°F8.9°C 37.2°F2.9°C 66% 8.5 mph WNW13.7 kmh WNW 15.4 mph24.8 kmh 29.99 in1015.6 mb - 0.00 in0.0 mm 0.00 in0.0 mm
02:47 AM 48.0°F8.9°C 36.9°F2.7°C 65% 9.4 mph W15.1 kmh W 19.0 mph30.6 kmh 29.99 in1015.6 mb - 0.00 in0.0 mm 0.00 in0.0 mm
02:42 AM 48.0°F8.9°C 36.9°F2.7°C 65% 8.1 mph W13.0 kmh W 16.1 mph25.9 kmh 29.99 in1015.6 mb - 0.00 in0.0 mm 0.00 in0.0 mm
02:37 AM 48.0°F8.9°C 36.9°F2.7°C 65% 10.3 mph SW16.6 kmh SW 22.8 mph36.7 kmh 29.99 in1015.6 mb - 0.00 in0.0 mm 0.00 in0.0 mm
02:32 AM 48.2°F9.0°C 36.7°F2.6°C 64% 10.5 mph W16.9 kmh W 21.5 mph34.6 kmh 29.99 in1015.6 mb - 0.00 in0.0 mm 0.00 in0.0 mm
02:27 AM 48.2°F9.0°C 36.1°F2.3°C 63% 12.1 mph WSW19.5 kmh WSW 27.3 mph43.9 kmh 29.99 in1015.6 mb - 0.00 in0.0 mm 0.00 in0.0 mm
02:22 AM 48.2°F9.0°C 36.1°F2.3°C 63% 10.5 mph WSW16.9 kmh WSW 20.4 mph32.8 kmh 29.99 in1015.6 mb - 0.00 in0.0 mm 0.00 in0.0 mm
02:17 AM 48.2°F9.0°C 36.7°F2.6°C 64% 11.4 mph W18.3 kmh W 22.6 mph36.4 kmh 29.99 in1015.6 mb - 0.00 in0.0 mm 0.00 in0.0 mm
02:12 AM 48.4°F9.1°C 36.3°F2.4°C 63% 9.2 mph WSW14.8 kmh WSW 17.7 mph28.5 kmh 29.99 in1015.6 mb - 0.00 in0.0 mm 0.00 in0.0 mm
02:07 AM 48.0°F8.9°C 36.9°F2.7°C 65% 13.2 mph WNW21.2 kmh WNW 24.4 mph39.3 kmh 29.99 in1015.6 mb - 0.00 in0.0 mm 0.00 in0.0 mm
02:02 AM 48.2°F9.0°C 36.7°F2.6°C 64% 10.7 mph WSW17.2 kmh WSW 19.2 mph30.9 kmh 29.99 in1015.6 mb - 0.00 in0.0 mm 0.00 in0.0 mm
01:57 AM 48.2°F9.0°C 36.7°F2.6°C 64% 9.8 mph W15.8 kmh W 19.9 mph32.0 kmh 29.99 in1015.6 mb - 0.00 in0.0 mm 0.00 in0.0 mm
01:52 AM 48.2°F9.0°C 36.1°F2.3°C 63% 11.0 mph W17.7 kmh W 21.0 mph33.8 kmh 29.99 in1015.6 mb - 0.00 in0.0 mm 0.00 in0.0 mm
01:47 AM 48.2°F9.0°C 36.1°F2.3°C 63% 10.7 mph SW17.2 kmh SW 22.6 mph36.4 kmh 29.99 in1015.6 mb - 0.00 in0.0 mm 0.00 in0.0 mm
01:42 AM 48.2°F9.0°C 35.8°F2.1°C 62% 9.2 mph WNW14.8 kmh WNW 17.4 mph28.0 kmh 29.99 in1015.6 mb - 0.00 in0.0 mm 0.00 in0.0 mm
01:37 AM 48.4°F9.1°C 35.6°F2.0°C 61% 11.0 mph W17.7 kmh W 22.6 mph36.4 kmh 29.99 in1015.6 mb - 0.00 in0.0 mm 0.00 in0.0 mm
01:32 AM 48.4°F9.1°C 35.6°F2.0°C 61% 7.4 mph WNW11.9 kmh WNW 19.5 mph31.4 kmh 29.99 in1015.6 mb - 0.00 in0.0 mm 0.00 in0.0 mm
01:27 AM 48.4°F9.1°C 35.6°F2.0°C 61% 13.0 mph WNW20.9 kmh WNW 25.1 mph40.4 kmh 29.99 in1015.6 mb - 0.00 in0.0 mm 0.00 in0.0 mm
01:22 AM 48.6°F9.2°C 35.4°F1.9°C 60% 11.2 mph W18.0 kmh W 23.3 mph37.5 kmh 29.99 in1015.6 mb - 0.00 in0.0 mm 0.00 in0.0 mm
01:17 AM 48.6°F9.2°C 35.4°F1.9°C 60% 9.8 mph SW15.8 kmh SW 23.9 mph38.5 kmh 29.99 in1015.6 mb - 0.00 in0.0 mm 0.00 in0.0 mm
01:12 AM 48.7°F9.3°C 35.1°F1.7°C 59% 14.5 mph W23.3 kmh W 29.8 mph48.0 kmh 29.99 in1015.6 mb - 0.00 in0.0 mm 0.00 in0.0 mm
01:07 AM 48.7°F9.3°C 35.1°F1.7°C 59% 13.2 mph WNW21.2 kmh WNW 24.4 mph39.3 kmh 29.99 in1015.6 mb - 0.00 in0.0 mm 0.00 in0.0 mm
01:02 AM 48.7°F9.3°C 35.1°F1.7°C 59% 13.2 mph WSW21.2 kmh WSW 28.6 mph46.0 kmh 29.99 in1015.6 mb - 0.00 in0.0 mm 0.00 in0.0 mm
12:57 AM 48.9°F9.4°C 35.6°F2.0°C 60% 11.4 mph WSW18.3 kmh WSW 23.0 mph37.0 kmh 29.99 in1015.6 mb - 0.00 in0.0 mm 0.00 in0.0 mm
12:52 AM 48.7°F9.3°C 36.0°F2.2°C 61% 11.9 mph WSW19.2 kmh WSW 28.2 mph45.4 kmh 29.99 in1015.6 mb - 0.00 in0.0 mm 0.00 in0.0 mm
12:47 AM 48.7°F9.3°C 36.3°F2.4°C 62% 13.4 mph W21.6 kmh W 24.8 mph39.9 kmh 29.99 in1015.6 mb - 0.00 in0.0 mm 0.00 in0.0 mm
12:42 AM 48.7°F9.3°C 36.3°F2.4°C 62% 13.9 mph WNW22.4 kmh WNW 26.8 mph43.1 kmh 30.01 in1016.3 mb - 0.00 in0.0 mm 0.00 in0.0 mm
12:37 AM 48.7°F9.3°C 36.0°F2.2°C 61% 15.7 mph W25.3 kmh W 29.1 mph46.8 kmh 30.01 in1016.3 mb - 0.00 in0.0 mm 0.00 in0.0 mm
12:32 AM 48.9°F9.4°C 36.1°F2.3°C 61% 12.1 mph WSW19.5 kmh WSW 23.3 mph37.5 kmh 30.01 in1016.3 mb - 0.00 in0.0 mm 0.00 in0.0 mm
12:27 AM 48.7°F9.3°C 36.0°F2.2°C 61% 11.9 mph W19.2 kmh W 21.0 mph33.8 kmh 29.99 in1015.6 mb - 0.00 in0.0 mm 0.00 in0.0 mm
12:22 AM 48.7°F9.3°C 36.0°F2.2°C 61% 14.3 mph W23.0 kmh W 28.4 mph45.7 kmh 29.99 in1015.6 mb - 0.00 in0.0 mm 0.00 in0.0 mm
12:17 AM 48.7°F9.3°C 36.3°F2.4°C 62% 13.2 mph W21.2 kmh W 29.8 mph48.0 kmh 29.99 in1015.6 mb - 0.00 in0.0 mm 0.00 in0.0 mm
12:12 AM 48.6°F9.2°C 36.1°F2.3°C 62% 14.8 mph NW23.8 kmh NW 29.3 mph47.2 kmh 30.01 in1016.3 mb - 0.00 in0.0 mm 0.00 in0.0 mm
12:07 AM 48.6°F9.2°C 36.1°F2.3°C 62% 13.4 mph W21.6 kmh W 26.8 mph43.1 kmh 30.01 in1016.3 mb - 0.00 in0.0 mm 0.00 in0.0 mm
12:02 AM 48.4°F9.1°C 36.9°F2.7°C 64% 11.9 mph WSW19.2 kmh WSW 25.3 mph40.7 kmh 30.01 in1016.3 mb - 0.00 in0.0 mm 0.16 in4.1 mm